Drake Field
KFYV : now visible

Airfield :











YOU CAN JOIN US ON...

 
LOGIN :

Register | Disclaimer

   EN    FR    IT 

 









Legend :    VFR   Marginal VFR   IFR   Intensive IFR   Very Intensive IFR
Visi :
Ceiling :
>= 8 km
>= 3000ft
5 to 8 km
1000 to 3000 ft
1500m to 5 km
500 to 1000 ft
800 to 1500m
200 to 500 ft
< 800m
< 200 ft
Symbols :   Thunderstorms  Fog  Heavy snow  Heavy precipitations  Wind > 20 kt






- Airport Elevation : 1251 ft
- IATA code : FYV


KFYV - Drake Field

CURRENT METAR :
  • 250253Z AUTO 00000KT 10SM SCT049 BKN090 BKN110 17/17 A2981 RMK AO2 RAE30 SLP085 P0001 60015 T01720167 52007

EXPIRED METARs :
  • 250153Z 07003KT 4SM RA BR SCT080 OVC100 17/17 A2981 RMK AO2 LTG DSNT NE TSB0057E12 SLP084 P0013 T01720167
  • 250118Z 05003KT 4SM +RA BR BKN075 OVC095 17/17 A2979 RMK AO2 LTG DSNT NE AND E TSB0057E12 P0008 T01720167
  • 250103Z 00000KT 3SM TSRA BR OVC100 17/17 A2980 RMK AO2 LTG DSNT NE-SE TSB0057 P0002 T01720167
  • 250053Z 00000KT 5SM RA BR OVC100 18/17 A2979 RMK AO2 LTG DSNT E-SW SLP079 P0001 T01780167

TAF KFYV
Valid from the 25 at 02:00 until the 26 at 00:00 UTC


250153Z 2502/2524 VRB06KT 6SM -RA OVC100
TEMPO 2502/2506 4SM RA BKN070
FM250600 17007KT 6SM -SHRA OVC006
FM251100 19010KT 6SM BR OVC007
FM251500 20011KT P6SM VCSH BKN015
FM251900 22011KT P6SM VCSH BKN050
KZME FIR / North America



MET'MAP, your aeronautical weather chart ! - Copyright ORBIFLY December 2007 - Disclaimer

ORBIFLY MET'MAP TEAM :

Programming & Development : Alexandra Zaïnal
Original concept : Baudouin d'Aumeries
Technical & hardware support : Manuel Goepfert
Assistance : Marc-Olivier Méhu

Contact : metmap@orbifly.com




SOURCES & CREDITS :

   NOAA       Earth
Advisory